Time;durP1;ratioP1;P1;durP2;ratioP2;P2;SDS_P1;SDS_P2;PMS_P1;PMS_P2;Temp;Humidity;BMP_temperature;BMP_pressure;BME280_temperature;BME280_humidity;BME280_pressure;Samples;Min_cycle;Max_cycle;Signal;HPM_P1;HPM_P2
2022/07/18 00:00:48;;;;;;;9.02;3.33;;;;;;;19.30;50.63;100712.47;4994527;28;20081;-59
2022/07/18 00:03:35;;;;;;;7.53;2.92;;;;;;;19.28;50.62;100712.50;4994743;28;20053;-59
2022/07/18 00:06:22;;;;;;;9.82;3.33;;;;;;;19.27;50.69;100702.88;4994858;28;20196;-58
2022/07/18 00:09:06;;;;;;;7.65;3.13;;;;;;;19.27;50.75;100710.75;4993513;28;20061;-60
2022/07/18 00:11:53;;;;;;;7.05;2.85;;;;;;;19.26;50.71;100716.91;4993481;28;20096;-60
2022/07/18 00:14:38;;;;;;;9.45;3.72;;;;;;;19.24;50.84;100710.78;4994596;28;20194;-59
2022/07/18 00:17:22;;;;;;;5.05;2.92;;;;;;;19.24;50.84;100708.16;4993674;28;20564;-60
2022/07/18 00:20:09;;;;;;;7.68;2.70;;;;;;;19.23;50.79;100716.06;4993926;28;20057;-59
2022/07/18 00:22:55;;;;;;;6.43;2.83;;;;;;;19.22;50.91;100716.94;4993914;28;20184;-59
2022/07/18 00:25:39;;;;;;;5.95;2.85;;;;;;;19.22;50.97;100712.56;4994278;28;20071;-59
2022/07/18 00:28:26;;;;;;;7.22;3.50;;;;;;;19.20;51.08;100710.84;4993260;28;20050;-59
2022/07/18 00:31:15;;;;;;;5.80;3.42;;;;;;;19.19;50.91;100709.09;4992870;28;20472;-58
2022/07/18 00:34:03;;;;;;;6.97;3.33;;;;;;;19.15;51.02;100706.47;4993432;28;20129;-59
2022/07/18 00:36:47;;;;;;;9.60;3.88;;;;;;;19.12;51.00;100698.63;4994064;28;20070;-58
2022/07/18 00:39:31;;;;;;;6.07;3.38;;;;;;;19.08;51.06;100701.28;4994092;28;20533;-58
2022/07/18 00:42:15;;;;;;;6.78;3.08;;;;;;;19.05;51.10;100699.56;4993679;28;20049;-59
2022/07/18 00:45:03;;;;;;;11.43;2.92;;;;;;;19.02;51.26;100695.19;4993109;28;20050;-58
2022/07/18 00:47:52;;;;;;;5.78;3.15;;;;;;;18.99;51.35;100697.88;4992784;28;20080;-58
2022/07/18 00:50:46;;;;;;;8.82;3.38;;;;;;;18.97;51.22;100693.50;4994275;28;20082;-58
2022/07/18 00:53:39;;;;;;;6.57;2.97;;;;;;;18.96;51.30;100691.75;4993793;28;20049;-59
2022/07/18 00:56:26;;;;;;;9.20;4.00;;;;;;;18.94;51.44;100698.75;4992670;28;20104;-60
2022/07/18 00:59:13;;;;;;;6.47;3.22;;;;;;;18.94;51.56;100690.84;4993712;28;20129;-60
2022/07/18 01:02:00;;;;;;;8.20;3.40;;;;;;;18.95;51.43;100695.25;4992823;28;20189;-59
2022/07/18 01:04:44;;;;;;;8.77;3.70;;;;;;;18.93;51.85;100690.00;4993986;28;20049;-60
2022/07/18 01:07:28;;;;;;;5.78;2.78;;;;;;;18.92;51.62;100696.13;4992695;28;20409;-60
2022/07/18 01:10:17;;;;;;;8.30;3.58;;;;;;;18.91;51.55;100697.03;4993087;28;20093;-59
2022/07/18 01:13:09;;;;;;;6.85;2.97;;;;;;;18.90;51.52;100686.53;4993860;28;20041;-59
2022/07/18 01:15:59;;;;;;;6.00;3.42;;;;;;;18.89;51.76;100692.69;4992322;28;20045;-58
2022/07/18 01:18:49;;;;;;;11.52;3.53;;;;;;;18.83;51.72;100680.47;4993754;28;20068;-60
2022/07/18 01:21:40;;;;;;;7.00;3.25;;;;;;;18.81;51.49;100684.88;4993514;28;20045;-59
2022/07/18 01:24:36;;;;;;;7.00;3.55;;;;;;;18.78;51.76;100679.63;4993000;28;20403;-59
2022/07/18 01:27:22;;;;;;;7.45;3.13;;;;;;;18.77;51.88;100683.13;4993514;28;20103;-59
2022/07/18 01:30:12;;;;;;;9.52;3.47;;;;;;;18.76;51.71;100679.66;4993711;28;20056;-60
2022/07/18 01:33:03;;;;;;;6.85;3.25;;;;;;;18.74;51.55;100681.41;4992759;28;20177;-60
2022/07/18 01:35:51;;;;;;;6.53;3.92;;;;;;;18.74;51.63;100680.53;4993582;28;20061;-59
2022/07/18 01:38:38;;;;;;;9.65;3.75;;;;;;;18.72;51.78;100672.69;4992902;28;20085;-59
2022/07/18 01:41:28;;;;;;;6.60;3.13;;;;;;;18.70;51.77;100666.56;4992602;28;20178;-59
2022/07/18 01:44:20;;;;;;;5.43;2.75;;;;;;;18.68;51.88;100660.44;4992759;28;20057;-59
2022/07/18 01:47:14;;;;;;;6.82;2.88;;;;;;;18.67;52.09;100664.84;4992452;28;20101;-59
2022/07/18 01:49:58;;;;;;;6.88;3.38;;;;;;;18.67;52.00;100659.59;4994806;28;20096;-60
2022/07/18 01:52:50;;;;;;;7.70;3.28;;;;;;;18.67;51.99;100654.34;4997018;28;20462;-59
2022/07/18 01:55:37;;;;;;;4.35;3.25;;;;;;;18.69;52.29;100656.94;4996296;28;20519;-60
2022/07/18 01:58:29;;;;;;;13.00;3.90;;;;;;;18.68;51.77;100655.19;4996077;28;20053;-58
2022/07/18 02:01:22;;;;;;;6.47;3.65;;;;;;;18.68;52.22;100658.72;4995529;28;20048;-60
2022/07/18 02:04:09;;;;;;;6.28;3.25;;;;;;;18.69;52.06;100662.19;4996784;28;20469;-58
2022/07/18 02:06:58;;;;;;;5.85;3.45;;;;;;;18.67;51.92;100653.44;4996250;28;20073;-58
2022/07/18 02:09:42;;;;;;;4.97;2.90;;;;;;;18.68;52.15;100656.09;4995601;28;20065;-58
2022/07/18 02:12:27;;;;;;;6.13;2.80;;;;;;;18.68;51.89;100658.72;4995903;28;20065;-58
2022/07/18 02:15:13;;;;;;;4.45;2.55;;;;;;;18.68;51.99;100660.44;4995740;28;20520;-59
2022/07/18 02:18:00;;;;;;;9.10;3.42;;;;;;;18.68;52.02;100655.19;4995912;28;20196;-60
2022/07/18 02:20:44;;;;;;;7.00;2.95;;;;;;;18.68;52.06;100653.47;4996318;28;20041;-60
2022/07/18 02:23:34;;;;;;;5.85;2.95;;;;;;;18.66;52.30;100657.84;4996296;28;20053;-59
2022/07/18 02:26:21;;;;;;;8.32;2.97;;;;;;;18.64;52.02;100651.72;4995788;28;20128;-60
2022/07/18 02:29:13;;;;;;;5.13;3.13;;;;;;;18.64;51.98;100653.47;4994988;28;20121;-59
2022/07/18 02:31:57;;;;;;;6.78;3.13;;;;;;;18.63;52.04;100647.34;4995193;28;20053;-60
2022/07/18 02:34:44;;;;;;;8.48;3.28;;;;;;;18.63;52.23;100639.50;4995544;28;20127;-60
2022/07/18 02:37:31;;;;;;;7.65;3.33;;;;;;;18.66;52.02;100641.22;4995491;28;20173;-59
2022/07/18 02:40:24;;;;;;;5.20;3.20;;;;;;;18.66;51.91;100641.22;4996076;28;20137;-60
2022/07/18 02:43:08;;;;;;;5.43;2.83;;;;;;;18.67;52.03;100640.31;4995073;28;20049;-58
2022/07/18 02:45:56;;;;;;;5.28;2.65;;;;;;;18.66;52.12;100643.84;4996359;28;20449;-59
2022/07/18 02:48:46;;;;;;;5.20;2.45;;;;;;;18.65;51.96;100640.34;4995125;28;20093;-58
2022/07/18 02:51:32;;;;;;;5.72;3.00;;;;;;;18.65;52.16;100652.59;4995021;28;20064;-58
2022/07/18 02:54:22;;;;;;;4.43;2.90;;;;;;;18.62;52.33;100650.88;4996121;28;20144;-60
2022/07/18 02:57:10;;;;;;;8.95;3.15;;;;;;;18.62;52.45;100648.25;4994841;28;20130;-58
2022/07/18 03:00:02;;;;;;;5.60;2.55;;;;;;;18.62;52.28;100645.63;4995007;28;20061;-58
2022/07/18 03:02:52;;;;;;;5.53;3.20;;;;;;;18.62;52.08;100652.59;4994421;28;20516;-58
2022/07/18 03:05:39;;;;;;;5.95;2.80;;;;;;;18.61;52.41;100649.13;4994399;28;20129;-59
2022/07/18 03:08:23;;;;;;;6.45;2.95;;;;;;;18.60;52.35;100643.91;4995866;28;20053;-60
2022/07/18 03:11:09;;;;;;;6.32;3.05;;;;;;;18.59;52.40;100642.16;4995893;28;20133;-60
2022/07/18 03:14:00;;;;;;;7.35;2.83;;;;;;;18.58;52.42;100643.03;4994686;28;20410;-59
2022/07/18 03:16:52;;;;;;;9.18;3.50;;;;;;;18.55;52.46;100630.78;4994619;28;20410;-59
2022/07/18 03:19:42;;;;;;;4.75;2.30;;;;;;;18.54;52.38;100629.03;4995293;28;20453;-60
2022/07/18 03:22:33;;;;;;;7.00;3.20;;;;;;;18.53;52.45;100633.44;4994373;28;20052;-60
2022/07/18 03:25:17;;;;;;;4.93;2.45;;;;;;;18.52;52.28;100634.31;4994165;28;20488;-60
2022/07/18 03:28:06;;;;;;;6.75;3.15;;;;;;;18.49;52.39;100634.34;4994543;28;20045;-60
2022/07/18 03:31:00;;;;;;;5.68;3.03;;;;;;;18.49;52.34;100631.72;4994312;28;20061;-60
2022/07/18 03:33:44;;;;;;;6.82;3.80;;;;;;;18.46;52.31;100621.22;4994257;28;20061;-59
2022/07/18 03:36:34;;;;;;;10.10;3.72;;;;;;;18.44;52.32;100625.63;4994410;28;20457;-59
2022/07/18 03:39:26;;;;;;;4.53;2.92;;;;;;;18.44;52.31;100628.25;4994805;28;20121;-60
2022/07/18 03:42:19;;;;;;;7.03;3.35;;;;;;;18.42;52.59;100619.53;4994100;28;20557;-60
2022/07/18 03:45:10;;;;;;;10.32;3.10;;;;;;;18.43;52.34;100621.28;4994249;28;20045;-60
2022/07/18 03:48:05;;;;;;;8.50;2.80;;;;;;;18.41;52.48;100623.03;4993923;28;20051;-60
2022/07/18 03:50:58;;;;;;;10.55;3.05;;;;;;;18.38;52.48;100613.41;4994392;28;20516;-59
2022/07/18 03:53:45;;;;;;;8.07;2.92;;;;;;;18.37;52.58;100614.28;4994649;28;20473;-58
2022/07/18 03:56:35;;;;;;;8.20;3.25;;;;;;;18.36;52.48;100615.19;4980584;28;20584;-59
2022/07/18 03:59:19;;;;;;;7.28;3.30;;;;;;;18.35;52.56;100613.47;4993953;28;20580;-59
2022/07/18 04:02:14;;;;;;;6.05;3.00;;;;;;;18.34;52.50;100611.72;4993789;28;20090;-58
2022/07/18 04:05:06;;;;;;;10.63;3.20;;;;;;;18.30;52.71;100615.22;4994585;28;20049;-59
2022/07/18 04:07:58;;;;;;;12.48;3.33;;;;;;;18.29;52.28;100610.00;4993786;28;20525;-59
2022/07/18 04:10:51;;;;;;;5.38;2.92;;;;;;;18.28;52.75;100610.88;4993787;28;20056;-58
2022/07/18 04:13:41;;;;;;;8.85;2.78;;;;;;;18.26;52.39;100609.13;4993469;28;20109;-59
2022/07/18 04:16:25;;;;;;;4.68;3.00;;;;;;;18.27;52.64;100607.38;4993384;28;20129;-58
2022/07/18 04:19:09;;;;;;;6.80;3.20;;;;;;;18.28;52.44;100603.00;4994325;28;20045;-58
2022/07/18 04:21:53;;;;;;;7.53;2.75;;;;;;;18.29;52.58;100604.75;4993343;28;20563;-60
2022/07/18 04:24:39;;;;;;;6.10;3.20;;;;;;;18.30;52.59;100607.34;4994400;28;20181;-58
2022/07/18 04:27:29;;;;;;;4.60;2.58;;;;;;;18.30;52.56;100603.84;4993678;28;20044;-59
2022/07/18 04:30:23;;;;;;;5.35;2.80;;;;;;;18.30;52.56;100595.97;4993031;28;20045;-59
2022/07/18 04:33:11;;;;;;;7.55;2.78;;;;;;;18.32;52.68;100596.84;4993449;28;20500;-59
2022/07/18 04:36:04;;;;;;;5.15;2.80;;;;;;;18.35;52.77;100597.72;4993057;28;20415;-58
2022/07/18 04:38:53;;;;;;;3.67;2.70;;;;;;;18.38;52.20;100602.06;4992959;28;20054;-59
2022/07/18 04:41:37;;;;;;;4.28;2.58;;;;;;;18.41;52.14;100595.03;4992814;28;20069;-59
2022/07/18 04:44:29;;;;;;;8.05;2.90;;;;;;;18.41;52.15;100595.03;4994368;28;20049;-60
2022/07/18 04:47:16;;;;;;;4.97;2.55;;;;;;;18.43;51.75;100600.28;4992887;28;20628;-60
2022/07/18 04:50:04;;;;;;;4.05;2.58;;;;;;;18.45;51.65;100598.47;4994102;28;20100;-59
2022/07/18 04:52:51;;;;;;;5.57;2.72;;;;;;;18.47;51.84;100604.59;4993789;28;20130;-60
2022/07/18 04:55:37;;;;;;;6.63;2.47;;;;;;;18.48;51.92;100606.34;4992758;28;20057;-60
2022/07/18 04:58:29;;;;;;;5.10;2.30;;;;;;;18.50;51.55;100603.72;4993260;28;20053;-60
2022/07/18 05:01:13;;;;;;;6.72;2.33;;;;;;;18.51;51.75;100598.44;4992930;28;20042;-59
2022/07/18 05:03:58;;;;;;;4.45;2.28;;;;;;;18.54;51.61;100603.69;4992746;28;20049;-60
2022/07/18 05:06:41;;;;;;;5.82;2.50;;;;;;;18.55;51.71;100599.28;4994094;28;20517;-60
2022/07/18 05:09:29;;;;;;;9.35;3.40;;;;;;;18.57;51.42;100594.91;4993685;28;20097;-60
2022/07/18 05:12:18;;;;;;;5.53;2.22;;;;;;;18.60;51.45;100596.66;4993352;28;20053;-60
2022/07/18 05:15:08;;;;;;;3.85;2.10;;;;;;;18.62;51.90;100594.84;4992763;28;20049;-59
2022/07/18 05:17:56;;;;;;;3.85;1.85;;;;;;;18.63;51.29;100589.63;4993063;28;20054;-60
2022/07/18 05:20:41;;;;;;;4.20;2.53;;;;;;;18.66;51.37;100586.09;4993730;28;20053;-60
2022/07/18 05:23:25;;;;;;;;;;;;;;;18.67;51.30;100593.06;4994776;28;20053;-59
2022/07/18 05:26:09;;;;;;;5.18;2.58;;;;;;;18.69;51.38;100593.94;4997560;28;19985;-59
2022/07/18 05:28:56;;;;;;;5.97;2.35;;;;;;;18.71;51.12;100592.16;4996340;28;20105;-60
2022/07/18 05:31:41;;;;;;;8.15;2.47;;;;;;;18.75;51.24;100585.13;4996445;28;20477;-60
2022/07/18 05:34:28;;;;;;;6.25;2.33;;;;;;;18.77;51.16;100592.09;4996487;28;20112;-59
2022/07/18 05:37:15;;;;;;;5.43;2.20;;;;;;;18.78;50.84;100583.34;4997107;28;20101;-60
2022/07/18 05:39:59;;;;;;;4.55;2.10;;;;;;;18.81;50.92;100580.69;4996448;28;20124;-60
2022/07/18 05:42:45;;;;;;;4.90;2.78;;;;;;;18.84;51.02;100582.44;4997126;28;20046;-59
2022/07/18 05:45:33;;;;;;;4.15;2.13;;;;;;;18.87;50.78;100595.50;4996470;28;20119;-59
2022/07/18 05:48:22;;;;;;;5.25;1.83;;;;;;;18.88;50.62;100589.38;4996897;28;20092;-60
2022/07/18 05:51:12;;;;;;;3.45;2.10;;;;;;;18.90;50.73;100586.75;4996143;28;20101;-59
2022/07/18 05:53:59;;;;;;;5.30;2.25;;;;;;;18.93;50.85;100584.97;4996051;28;20109;-60
2022/07/18 05:56:48;;;;;;;7.68;2.17;;;;;;;18.95;50.71;100590.22;4996949;28;20097;-59
2022/07/18 05:59:35;;;;;;;8.05;2.47;;;;;;;18.97;50.62;100593.69;4996775;28;20580;-60
2022/07/18 06:02:19;;;;;;;5.38;1.83;;;;;;;19.00;50.57;100591.91;4996519;28;20108;-59
2022/07/18 06:05:06;;;;;;;10.20;2.53;;;;;;;19.02;50.65;100587.50;4996411;28;20065;-60
2022/07/18 06:07:52;;;;;;;4.68;2.17;;;;;;;19.03;50.23;100585.78;4995714;28;20525;-59
2022/07/18 06:10:36;;;;;;;6.35;2.20;;;;;;;19.04;50.40;100592.78;4995571;28;20069;-60
2022/07/18 06:13:20;;;;;;;6.55;2.28;;;;;;;19.06;50.19;100592.75;4996786;28;20100;-60
2022/07/18 06:16:05;;;;;;;5.32;2.30;;;;;;;19.08;50.32;100586.56;4996461;28;20054;-60
2022/07/18 06:18:52;;;;;;;5.00;2.35;;;;;;;19.09;50.44;100583.06;4995875;28;20405;-60
2022/07/18 06:21:44;;;;;;;7.05;2.13;;;;;;;19.12;50.35;100582.19;4996737;28;20050;-60
2022/07/18 06:24:29;;;;;;;2.17;1.65;;;;;;;19.13;50.36;100584.78;4995335;28;20104;-60
2022/07/18 06:27:18;;;;;;;3.63;2.30;;;;;;;19.14;50.14;100586.53;4996041;28;20080;-60
2022/07/18 06:30:04;;;;;;;9.63;2.25;;;;;;;19.15;49.95;100588.25;4996084;28;20045;-60
2022/07/18 06:32:48;;;;;;;6.30;2.60;;;;;;;19.17;50.16;100591.75;4996498;28;20097;-59
2022/07/18 06:35:32;;;;;;;9.40;2.60;;;;;;;19.20;50.26;100592.59;4996277;28;20053;-60
2022/07/18 06:38:16;;;;;;;6.93;2.20;;;;;;;19.21;50.14;100591.72;4996233;28;20516;-60
2022/07/18 06:41:01;;;;;;;6.75;2.08;;;;;;;19.23;50.18;100593.44;4995574;28;20052;-59
2022/07/18 06:43:45;;;;;;;8.95;2.65;;;;;;;19.26;50.17;100597.78;4996135;28;20045;-59
2022/07/18 06:46:29;;;;;;;6.28;2.33;;;;;;;19.27;50.06;100599.50;4996029;28;20521;-59
2022/07/18 06:49:15;;;;;;;;;;;;;;;19.27;50.05;100596.88;4996382;28;20049;-59
2022/07/18 06:52:00;;;;;;;5.68;2.50;;;;;;;19.27;50.32;100597.78;4995922;28;19936;-58
2022/07/18 06:54:44;;;;;;;3.40;1.95;;;;;;;19.29;49.95;100603.00;4995951;28;20053;-58
2022/07/18 06:57:28;;;;;;;8.30;2.53;;;;;;;19.30;49.74;100607.38;4996003;28;20133;-58
2022/07/18 07:00:14;;;;;;;5.18;1.90;;;;;;;19.33;49.78;100602.09;4995861;28;20050;-60
2022/07/18 07:02:58;;;;;;;5.53;2.20;;;;;;;19.35;49.86;100602.94;4994205;28;20430;-60
2022/07/18 07:05:42;;;;;;;4.60;2.15;;;;;;;19.36;49.73;100607.31;4995764;28;20128;-59
2022/07/18 07:08:25;;;;;;;3.65;2.08;;;;;;;19.37;49.73;100603.81;4996136;28;20148;-59
2022/07/18 07:11:10;;;;;;;9.65;2.33;;;;;;;19.39;49.61;100606.41;4995929;28;20053;-58
2022/07/18 07:13:54;;;;;;;5.80;1.90;;;;;;;19.41;49.43;100604.63;4995131;28;20085;-59
2022/07/18 07:16:38;;;;;;;4.22;2.03;;;;;;;19.42;49.33;100607.22;4995721;28;20049;-58
2022/07/18 07:19:21;;;;;;;7.03;2.20;;;;;;;19.43;49.48;100603.72;4995385;28;20536;-59
2022/07/18 07:22:05;;;;;;;4.50;1.85;;;;;;;19.45;49.33;100611.59;4995511;28;20049;-57
2022/07/18 07:24:49;;;;;;;3.33;2.13;;;;;;;19.46;49.37;100602.81;4995470;28;20096;-59
2022/07/18 07:27:33;;;;;;;6.70;2.50;;;;;;;19.48;49.01;100601.03;4994905;28;20470;-59
2022/07/18 07:30:18;;;;;;;3.00;2.03;;;;;;;19.51;49.32;100602.75;4995016;28;20482;-59
2022/07/18 07:33:02;;;;;;;;;;;;;;;19.51;49.30;100600.97;4995139;28;20126;-59
2022/07/18 07:35:46;;;;;;;4.90;2.10;;;;;;;19.53;49.05;100601.00;4995054;28;19972;-60
2022/07/18 07:38:31;;;;;;;3.13;1.80;;;;;;;19.55;48.87;100596.56;4994570;28;20628;-58
2022/07/18 07:41:15;;;;;;;3.53;2.20;;;;;;;19.58;49.06;100589.53;4995091;28;20096;-58
2022/07/18 07:44:08;;;;;;;6.22;2.58;;;;;;;19.61;48.95;100596.50;4993849;28;20489;-58
2022/07/18 07:46:52;;;;;;;7.30;2.20;;;;;;;19.62;48.87;100593.81;4994199;28;20088;-59
2022/07/18 07:49:36;;;;;;;5.43;2.10;;;;;;;19.66;48.78;100591.16;4994787;28;20414;-58
2022/07/18 07:52:23;;;;;;;;;;;;;;;19.68;48.89;100584.13;4995226;28;20050;-58
2022/07/18 07:55:08;;;;;;;6.13;1.58;;;;;;;19.69;48.83;100584.13;4993508;28;19936;-58
2022/07/18 07:57:53;;;;;;;10.98;2.00;;;;;;;19.70;48.58;100569.22;4994584;28;20061;-58
2022/07/18 08:00:37;;;;;;;4.68;1.98;;;;;;;19.75;48.31;100570.03;4994604;28;20117;-58
2022/07/18 08:03:24;;;;;;;5.78;1.85;;;;;;;19.78;48.44;100572.59;4994440;28;20628;-58
2022/07/18 08:06:08;;;;;;;4.80;2.47;;;;;;;19.82;48.39;100560.28;4994709;28;20053;-59
2022/07/18 08:08:52;;;;;;;4.10;1.80;;;;;;;19.86;48.20;100569.84;4994803;28;20142;-59
2022/07/18 08:11:36;;;;;;;9.43;1.75;;;;;;;19.89;48.26;100565.47;4994423;28;20129;-58
2022/07/18 08:14:20;;;;;;;12.73;2.55;;;;;;;19.92;48.35;100570.69;4994137;28;20136;-58
2022/07/18 08:17:04;;;;;;;14.88;3.30;;;;;;;19.95;48.00;100574.16;4994676;28;20104;-59
2022/07/18 08:19:48;;;;;;;12.85;3.38;;;;;;;19.97;48.18;100568.00;4994132;28;20061;-60
2022/07/18 08:22:35;;;;;;;15.30;2.85;;;;;;;19.99;48.13;100563.59;4994350;28;20049;-60
2022/07/18 08:25:20;;;;;;;9.70;3.28;;;;;;;20.00;47.93;100567.97;4994500;28;20057;-60
2022/07/18 08:28:06;;;;;;;7.47;2.53;;;;;;;20.04;47.98;100563.50;4994505;28;20081;-59
2022/07/18 08:30:53;;;;;;;13.90;2.63;;;;;;;20.07;47.94;100566.09;4993574;28;20409;-59
2022/07/18 08:33:37;;;;;;;8.88;2.85;;;;;;;20.10;47.78;100571.28;4993939;28;20421;-59
2022/07/18 08:36:21;;;;;;;6.07;2.15;;;;;;;20.14;47.61;100574.78;4994293;28;20065;-60
2022/07/18 08:39:05;;;;;;;5.60;2.00;;;;;;;20.15;47.99;100566.84;4993395;28;20049;-59
2022/07/18 08:41:51;;;;;;;7.32;1.80;;;;;;;20.18;47.40;100555.38;4994163;28;20041;-58
2022/07/18 08:44:37;;;;;;;6.57;2.47;;;;;;;20.19;47.55;100560.63;4993171;28;20425;-58
2022/07/18 08:47:21;;;;;;;5.22;1.80;;;;;;;20.22;47.47;100564.97;4993405;28;20065;-58
2022/07/18 08:50:06;;;;;;;6.60;2.35;;;;;;;20.26;47.38;100561.41;4993219;28;20088;-58
2022/07/18 08:52:50;;;;;;;6.10;2.03;;;;;;;20.29;47.16;100565.75;4993536;28;20137;-58
2022/07/18 08:55:35;;;;;;;10.35;2.10;;;;;;;20.32;47.12;100561.28;4992928;28;20129;-58
2022/07/18 08:58:19;;;;;;;4.68;1.98;;;;;;;20.35;47.12;100563.88;4995825;28;20101;-59
2022/07/18 09:01:02;;;;;;;3.67;2.35;;;;;;;20.37;46.95;100566.50;4997929;28;20089;-60
2022/07/18 09:04:14;;;;;;;6.93;2.05;;;;;;;20.39;46.91;100565.59;4997974;28;20069;-58
2022/07/18 09:06:54;;;;;;;14.67;2.93;;;;;;;20.39;46.97;100565.59;4998320;28;20617;-58
2022/07/18 09:09:51;;;;;;;10.57;1.98;;;;;;;20.39;46.78;100562.94;4996918;28;20284;-58
2022/07/18 09:12:35;;;;;;;5.75;2.10;;;;;;;20.40;46.59;100558.53;4997074;28;20061;-58
2022/07/18 09:15:19;;;;;;;5.25;1.95;;;;;;;20.40;46.65;100563.81;4997562;28;20097;-58
2022/07/18 09:18:03;;;;;;;6.93;1.88;;;;;;;20.40;46.46;100555.91;4997732;28;20049;-60
2022/07/18 09:21:05;;;;;;;4.15;1.77;;;;;;;20.42;46.98;100559.38;4997774;28;20539;-59
2022/07/18 09:23:51;;;;;;;5.32;1.90;;;;;;;20.45;46.37;100555.84;4997103;28;20418;-59
2022/07/18 09:26:45;;;;;;;2.80;1.88;;;;;;;20.47;46.57;100554.06;4997008;28;20092;-58
2022/07/18 09:29:29;;;;;;;3.78;1.92;;;;;;;20.49;46.41;100553.13;4996321;28;20120;-59
2022/07/18 09:32:21;;;;;;;2.47;1.60;;;;;;;20.53;46.50;100561.84;4997247;28;20073;-59
2022/07/18 09:35:11;;;;;;;5.68;1.58;;;;;;;20.52;46.34;100565.38;4996587;28;20052;-59
2022/07/18 09:37:58;;;;;;;4.68;1.70;;;;;;;20.53;46.01;100553.94;4996965;28;20584;-59
2022/07/18 09:40:48;;;;;;;2.58;1.73;;;;;;;20.57;46.10;100560.00;4996806;28;20053;-60
2022/07/18 09:43:37;;;;;;;3.10;1.77;;;;;;;20.58;46.10;100560.00;4996670;28;20529;-59
2022/07/18 09:46:21;;;;;;;4.53;2.05;;;;;;;20.60;46.08;100560.84;4996736;28;20049;-59
2022/07/18 09:49:09;;;;;;;2.70;1.75;;;;;;;20.61;45.88;100554.69;4997481;28;20402;-59
2022/07/18 09:52:08;;;;;;;5.22;1.45;;;;;;;20.62;46.28;100551.16;4995949;28;20044;-60
2022/07/18 09:55:05;;;;;;;2.63;1.92;;;;;;;20.63;46.12;100555.50;4995991;28;20049;-58
2022/07/18 09:58:10;;;;;;;4.88;1.70;;;;;;;20.66;46.04;100558.09;4996018;28;20105;-59
2022/07/18 10:00:56;;;;;;;3.80;1.75;;;;;;;20.69;45.58;100557.19;4996000;28;20057;-60
2022/07/18 10:03:40;;;;;;;3.25;1.98;;;;;;;20.69;45.43;100558.06;4995884;28;20417;-58
2022/07/18 10:06:24;;;;;;;4.60;2.00;;;;;;;20.72;45.47;100556.25;4996947;28;20488;-58
2022/07/18 10:09:14;;;;;;;3.53;1.70;;;;;;;20.75;45.23;100545.69;4996273;28;20516;-58
2022/07/18 10:11:59;;;;;;;2.72;1.65;;;;;;;20.76;45.21;100548.31;4996904;28;20584;-59
2022/07/18 10:14:44;;;;;;;4.55;1.92;;;;;;;20.80;45.14;100554.38;4996771;28;20137;-58
2022/07/18 10:17:28;;;;;;;5.30;1.90;;;;;;;20.81;45.27;100551.72;4995917;28;20093;-59
2022/07/18 10:20:15;;;;;;;4.43;1.60;;;;;;;20.86;44.96;100558.69;4996734;28;20061;-59
2022/07/18 10:23:13;;;;;;;3.83;1.60;;;;;;;20.86;45.28;100554.28;4996338;28;20049;-59
2022/07/18 10:26:26;;;;;;;6.72;1.85;;;;;;;20.86;45.41;100551.63;4996561;28;20058;-58
2022/07/18 10:29:16;;;;;;;3.28;2.15;;;;;;;20.88;45.27;100549.84;4995644;28;20101;-60
2022/07/18 10:32:03;;;;;;;4.57;2.00;;;;;;;20.91;44.96;100560.34;4996308;28;20045;-59
2022/07/18 10:34:47;;;;;;;8.68;1.92;;;;;;;20.94;44.81;100543.59;4995501;28;20111;-59
2022/07/18 10:37:35;;;;;;;4.45;2.05;;;;;;;20.95;44.76;100550.59;4995917;28;20571;-59
2022/07/18 10:40:26;;;;;;;7.95;1.60;;;;;;;20.97;44.89;100549.66;4995402;28;20145;-60
2022/07/18 10:43:29;;;;;;;7.53;2.40;;;;;;;20.99;45.43;100542.59;4995594;28;20045;-60
2022/07/18 10:46:13;;;;;;;7.68;3.22;;;;;;;21.03;44.94;100540.75;4995040;28;20054;-60
2022/07/18 10:48:57;;;;;;;3.08;1.85;;;;;;;21.05;44.83;100546.03;4995639;28;20058;-60
2022/07/18 10:51:44;;;;;;;;;;;;;;;21.07;45.28;100547.72;4996447;28;20054;-60
2022/07/18 10:54:29;;;;;;;2.95;2.25;;;;;;;21.08;44.96;100538.91;4995280;28;19919;-59
2022/07/18 10:57:13;;;;;;;8.73;3.10;;;;;;;21.11;44.69;100538.88;4995691;28;20048;-60
2022/07/18 11:00:08;;;;;;;9.43;5.55;;;;;;;21.15;44.66;100542.28;4995199;28;20096;-58
2022/07/18 11:03:01;;;;;;;;;;;;;;;21.18;45.19;100546.66;4995062;28;20457;-58
2022/07/18 11:05:50;;;;;;;13.25;3.47;;;;;;;21.18;44.64;100544.88;4995633;28;20048;-60
2022/07/18 11:08:34;;;;;;;8.88;2.85;;;;;;;21.19;44.38;100536.06;4995650;28;20637;-59
2022/07/18 11:11:21;;;;;;;3.97;2.85;;;;;;;21.24;44.49;100539.50;4995583;28;20125;-58
2022/07/18 11:14:05;;;;;;;5.50;2.22;;;;;;;21.28;44.28;100546.41;4996077;28;20045;-60
2022/07/18 11:17:05;;;;;;;4.22;2.63;;;;;;;21.32;44.74;100539.34;4995703;28;20544;-60
2022/07/18 11:20:27;;;;;;;5.63;2.30;;;;;;;21.34;44.76;100532.25;4995332;28;20177;-59
2022/07/18 11:23:18;;;;;;;5.22;2.15;;;;;;;21.36;44.54;100527.81;4993995;28;20517;-59
2022/07/18 11:26:05;;;;;;;4.00;1.75;;;;;;;21.42;44.13;100527.69;4994760;28;20109;-59
2022/07/18 11:29:00;;;;;;;5.18;2.08;;;;;;;21.46;44.44;100520.56;4995288;28;20125;-58
2022/07/18 11:31:50;;;;;;;5.35;1.80;;;;;;;21.47;44.12;100522.31;4994485;28;20121;-59
2022/07/18 11:34:37;;;;;;;2.72;1.85;;;;;;;21.50;44.17;100519.63;4995249;28;20114;-58
2022/07/18 11:37:21;;;;;;;3.92;2.17;;;;;;;21.53;43.92;100516.91;4995042;28;20525;-60
2022/07/18 11:40:07;;;;;;;9.30;1.98;;;;;;;21.56;43.93;100518.59;4995047;28;20564;-60
2022/07/18 11:42:56;;;;;;;6.05;1.98;;;;;;;21.57;44.04;100515.06;4994162;28;20045;-60
2022/07/18 11:45:40;;;;;;;3.55;2.25;;;;;;;21.59;43.68;100526.47;4994889;28;20573;-59
2022/07/18 11:48:24;;;;;;;3.45;1.88;;;;;;;21.62;43.68;100504.44;4994799;28;20425;-60
2022/07/18 11:51:16;;;;;;;3.88;1.65;;;;;;;21.63;43.90;100503.53;4994871;28;20133;-59
2022/07/18 11:54:00;;;;;;;2.30;1.38;;;;;;;21.64;43.35;100503.53;4993945;28;20528;-59
2022/07/18 11:56:46;;;;;;;4.05;1.70;;;;;;;21.69;43.59;100498.16;4995055;28;20045;-60
2022/07/18 11:59:40;;;;;;;3.15;1.60;;;;;;;21.71;43.83;100491.91;4995037;28;20556;-59
2022/07/18 12:03:04;;;;;;;3.90;2.20;;;;;;;21.77;44.02;100495.34;4993466;28;20061;-60
2022/07/18 12:05:54;;;;;;;2.75;1.75;;;;;;;21.78;43.53;100494.44;4994686;28;20641;-60
2022/07/18 12:08:44;;;;;;;5.68;1.63;;;;;;;21.79;43.40;100494.38;4993758;28;20085;-60
2022/07/18 12:11:32;;;;;;;8.07;1.90;;;;;;;21.80;43.48;100490.84;4994277;28;20053;-58
2022/07/18 12:14:16;;;;;;;4.88;2.05;;;;;;;21.82;43.29;100493.44;4993421;28;20572;-59
2022/07/18 12:17:00;;;;;;;8.00;2.10;;;;;;;21.84;43.40;100489.88;4994714;28;20523;-59
2022/07/18 12:19:44;;;;;;;4.32;1.98;;;;;;;21.88;43.39;100485.38;4993562;28;20049;-60
2022/07/18 12:22:28;;;;;;;12.68;2.60;;;;;;;21.89;43.42;100482.69;4993386;28;20050;-60
2022/07/18 12:25:12;;;;;;;10.98;2.30;;;;;;;21.92;43.22;100483.53;4994606;28;20073;-59
2022/07/18 12:27:56;;;;;;;5.25;1.98;;;;;;;21.95;43.09;100478.19;4994300;28;20088;-59
2022/07/18 12:30:40;;;;;;;7.05;1.77;;;;;;;21.96;43.08;100477.28;4994257;28;20045;-59
2022/07/18 12:33:23;;;;;;;7.63;2.22;;;;;;;21.98;42.91;100480.75;4993488;28;20054;-59
2022/07/18 12:36:10;;;;;;;6.53;2.22;;;;;;;22.00;43.03;100478.94;4994366;28;20065;-60
2022/07/18 12:39:00;;;;;;;3.10;1.70;;;;;;;22.04;42.96;100470.03;4993131;28;20144;-58
2022/07/18 12:41:47;;;;;;;3.72;2.33;;;;;;;22.06;42.84;100470.84;4993360;28;20132;-57
2022/07/18 12:44:33;;;;;;;4.72;1.90;;;;;;;22.07;42.59;100467.31;4991915;28;20473;-58
2022/07/18 12:47:17;;;;;;;8.02;2.25;;;;;;;22.08;42.73;100469.06;4993688;28;20131;-58
2022/07/18 12:50:00;;;;;;;3.42;1.90;;;;;;;22.11;42.62;100465.50;4994367;28;20116;-58
2022/07/18 12:52:45;;;;;;;2.42;1.70;;;;;;;22.13;42.62;100459.25;4994061;28;20085;-59
2022/07/18 12:55:34;;;;;;;2.83;1.77;;;;;;;22.16;42.64;100453.03;4993598;28;20093;-58
2022/07/18 12:58:18;;;;;;;3.97;1.83;;;;;;;22.18;42.60;100460.03;4993337;28;20049;-59
2022/07/18 13:01:02;;;;;;;2.42;1.60;;;;;;;22.19;42.38;100453.81;4992773;28;20112;-58